createdAt,value
2023-02-17T00:00:51.827Z,36.10
2023-02-17T00:01:51.816Z,37.80
2023-02-17T00:02:51.803Z,37.40
2023-02-17T00:04:12.802Z,37.60
2023-02-17T00:04:51.793Z,38.30
2023-02-17T00:05:51.776Z,39.50
2023-02-17T00:06:51.764Z,38.60
2023-02-17T00:07:51.756Z,41.00
2023-02-17T00:08:51.758Z,43.20
2023-02-17T00:10:12.741Z,41.30
2023-02-17T00:10:51.727Z,39.90
2023-02-17T00:11:51.719Z,43.00
2023-02-17T00:12:51.715Z,44.30
2023-02-17T00:13:51.702Z,40.50
2023-02-17T00:14:51.696Z,42.80
2023-02-17T00:16:12.738Z,41.30
2023-02-17T00:16:51.739Z,41.90
2023-02-17T00:17:51.672Z,40.70
2023-02-17T00:18:51.650Z,41.20
2023-02-17T00:19:51.642Z,41.30
2023-02-17T00:20:51.640Z,42.90
2023-02-17T00:22:12.631Z,42.50
2023-02-17T00:22:51.621Z,42.00
2023-02-17T00:23:51.605Z,41.00
2023-02-17T00:24:51.595Z,42.80
2023-02-17T00:25:51.593Z,42.50
2023-02-17T00:26:51.575Z,44.50
2023-02-17T00:28:12.573Z,42.50
2023-02-17T00:28:51.572Z,42.60
2023-02-17T00:29:51.560Z,44.10
2023-02-17T00:30:51.624Z,44.00
2023-02-17T00:31:51.612Z,43.60
2023-02-17T00:32:51.524Z,43.40
2023-02-17T00:34:12.517Z,42.80
2023-02-17T00:34:51.535Z,43.60
2023-02-17T00:35:51.488Z,44.10
2023-02-17T00:36:51.487Z,44.80
2023-02-17T00:37:51.472Z,42.60
2023-02-17T00:38:51.469Z,44.30
2023-02-17T00:40:12.461Z,45.20
2023-02-17T00:40:51.451Z,46.70
2023-02-17T00:41:51.436Z,46.20
2023-02-17T00:42:51.430Z,45.40
2023-02-17T00:43:51.420Z,45.10
2023-02-17T00:44:51.405Z,44.90
2023-02-17T00:46:12.494Z,42.80
2023-02-17T00:46:51.447Z,42.90
2023-02-17T00:47:51.384Z,44.10
2023-02-17T00:48:51.399Z,44.40
2023-02-17T00:49:51.359Z,43.30
2023-02-17T00:50:51.353Z,42.40
2023-02-17T00:52:12.348Z,44.40
2023-02-17T00:52:51.330Z,45.20
2023-02-17T00:53:51.324Z,44.40
2023-02-17T00:54:51.314Z,42.80
2023-02-17T00:55:51.308Z,42.70
2023-02-17T00:56:51.295Z,42.50
2023-02-17T00:58:12.295Z,43.90
2023-02-17T00:58:51.271Z,43.60
2023-02-17T00:59:51.272Z,45.50
2023-02-17T01:00:51.253Z,44.30
2023-02-17T01:01:51.275Z,45.10
2023-02-17T01:02:51.241Z,44.90
2023-02-17T01:04:12.239Z,45.00
2023-02-17T01:04:51.287Z,44.80
2023-02-17T01:05:51.208Z,43.00
2023-02-17T01:06:51.194Z,42.50
2023-02-17T01:07:51.201Z,43.80
2023-02-17T01:08:51.184Z,42.70
2023-02-17T01:10:12.234Z,43.50
2023-02-17T01:10:51.165Z,46.90
2023-02-17T01:11:51.156Z,44.70
2023-02-17T01:12:51.149Z,45.60
2023-02-17T01:13:51.130Z,44.80
2023-02-17T01:14:51.120Z,46.00
2023-02-17T01:16:12.163Z,45.60
2023-02-17T01:16:51.102Z,45.60
2023-02-17T01:17:51.110Z,43.80
2023-02-17T01:18:51.084Z,43.10
2023-02-17T01:19:51.084Z,44.70
2023-02-17T01:20:51.070Z,43.60
2023-02-17T01:22:12.067Z,42.90
2023-02-17T01:22:51.044Z,44.60
2023-02-17T01:23:51.046Z,45.00
2023-02-17T01:24:51.057Z,43.00
2023-02-17T01:25:51.039Z,44.00
2023-02-17T01:26:51.010Z,45.10
2023-02-17T01:28:12.006Z,44.10
2023-02-17T01:28:50.987Z,40.80
2023-02-17T01:29:50.983Z,44.00
2023-02-17T01:30:51.017Z,45.40
2023-02-17T01:31:50.979Z,42.30
2023-02-17T01:32:50.950Z,41.50
2023-02-17T01:34:11.959Z,43.80
2023-02-17T01:34:50.932Z,41.30
2023-02-17T01:35:50.928Z,42.40
2023-02-17T01:36:50.908Z,40.60
2023-02-17T01:37:50.904Z,41.50
2023-02-17T01:38:50.894Z,44.40
2023-02-17T01:40:11.888Z,42.60
2023-02-17T01:40:50.871Z,40.40
2023-02-17T01:41:50.865Z,43.00
2023-02-17T01:42:50.848Z,40.30
2023-02-17T01:43:50.845Z,42.10
2023-02-17T01:44:50.843Z,41.50
2023-02-17T01:46:11.895Z,42.70
2023-02-17T01:46:50.903Z,43.10
2023-02-17T01:47:50.809Z,38.80
2023-02-17T01:48:50.807Z,41.00
2023-02-17T01:49:50.788Z,39.00
2023-02-17T01:50:50.781Z,40.20
2023-02-17T01:52:11.795Z,40.30
2023-02-17T01:52:50.753Z,41.50
2023-02-17T01:53:50.741Z,43.10
2023-02-17T01:54:50.743Z,44.70
2023-02-17T01:55:50.725Z,45.50
2023-02-17T01:56:50.716Z,47.70
2023-02-17T01:58:11.711Z,46.10
2023-02-17T01:58:50.695Z,47.70
2023-02-17T01:59:50.682Z,48.80
2023-02-17T02:00:50.682Z,49.50
2023-02-17T02:01:50.724Z,50.80
2023-02-17T02:02:50.830Z,54.50
2023-02-17T02:04:11.649Z,60.00
2023-02-17T02:04:50.636Z,53.80
2023-02-17T02:05:50.627Z,56.10
2023-02-17T02:06:50.626Z,57.50
2023-02-17T02:07:50.603Z,58.30
2023-02-17T02:08:50.604Z,67.10
2023-02-17T02:10:11.589Z,64.60
2023-02-17T02:10:50.581Z,66.40
2023-02-17T02:11:50.567Z,66.50
2023-02-17T02:12:50.565Z,72.10
2023-02-17T02:13:50.552Z,66.10
2023-02-17T02:14:50.548Z,65.00
2023-02-17T02:16:11.586Z,68.60
2023-02-17T02:16:50.525Z,73.20
2023-02-17T02:17:50.511Z,77.00
2023-02-17T02:18:50.504Z,73.90
2023-02-17T02:19:50.492Z,76.70
2023-02-17T02:20:50.488Z,81.50
2023-02-17T02:22:11.488Z,79.30
2023-02-17T02:22:50.469Z,78.70
2023-02-17T02:23:50.464Z,80.10
2023-02-17T02:24:50.454Z,80.70
2023-02-17T02:25:50.434Z,75.90
2023-02-17T02:26:50.429Z,79.30
2023-02-17T02:28:11.425Z,83.10
2023-02-17T02:28:50.410Z,80.60
2023-02-17T02:29:50.395Z,86.40
2023-02-17T02:30:50.417Z,82.60
2023-02-17T02:31:50.469Z,82.70
2023-02-17T02:32:50.372Z,88.90
2023-02-17T02:34:11.372Z,85.70
2023-02-17T02:34:50.351Z,85.50
2023-02-17T02:35:50.340Z,85.20
2023-02-17T02:36:50.339Z,78.70
2023-02-17T02:37:50.321Z,77.90
2023-02-17T02:38:50.313Z,79.30
2023-02-17T02:40:11.324Z,77.70
2023-02-17T02:40:50.299Z,80.90
2023-02-17T02:41:50.417Z,83.60
2023-02-17T02:42:50.280Z,87.30
2023-02-17T02:43:50.261Z,81.40
2023-02-17T02:44:50.255Z,79.40
2023-02-17T02:46:11.333Z,79.80
2023-02-17T02:46:50.238Z,84.30
2023-02-17T02:47:50.240Z,76.00
2023-02-17T02:48:50.219Z,90.90
2023-02-17T02:49:50.212Z,92.70
2023-02-17T02:50:50.199Z,88.70
2023-02-17T02:52:11.191Z,100.10
2023-02-17T02:52:50.175Z,90.90
2023-02-17T02:53:50.170Z,94.30
2023-02-17T02:54:50.158Z,93.00
2023-02-17T02:55:50.145Z,95.90
2023-02-17T02:56:50.139Z,101.20
2023-02-17T02:58:11.129Z,100.40
2023-02-17T02:58:50.121Z,106.50
2023-02-17T02:59:50.106Z,93.20
2023-02-17T03:00:50.135Z,104.60
2023-02-17T03:01:50.084Z,110.00
2023-02-17T03:02:50.080Z,104.50
2023-02-17T03:04:11.116Z,99.30
2023-02-17T03:04:50.059Z,106.90
2023-02-17T03:05:50.050Z,107.20
2023-02-17T03:06:50.053Z,108.20
2023-02-17T03:07:50.036Z,100.70
2023-02-17T03:08:50.019Z,101.00
2023-02-17T03:10:11.040Z,101.70
2023-02-17T03:10:50.000Z,107.20
2023-02-17T03:11:49.994Z,104.00
2023-02-17T03:12:49.982Z,104.80
2023-02-17T03:13:50.009Z,100.60
2023-02-17T03:14:49.972Z,95.30
2023-02-17T03:16:10.991Z,93.60
2023-02-17T03:16:49.949Z,97.00
2023-02-17T03:17:49.934Z,93.10
2023-02-17T03:18:49.921Z,100.00
2023-02-17T03:19:49.915Z,103.50
2023-02-17T03:20:49.912Z,90.60
2023-02-17T03:22:10.897Z,98.70
2023-02-17T03:22:49.878Z,101.60
2023-02-17T03:23:49.866Z,98.80
2023-02-17T03:24:49.871Z,103.20
2023-02-17T03:25:49.853Z,102.30
2023-02-17T03:26:49.842Z,108.50
2023-02-17T03:28:10.833Z,109.30
2023-02-17T03:28:49.820Z,110.00
2023-02-17T03:29:49.813Z,104.80
2023-02-17T03:30:49.813Z,110.30
2023-02-17T03:31:49.922Z,110.20
2023-02-17T03:32:49.790Z,113.20
2023-02-17T03:34:10.769Z,122.20
2023-02-17T03:34:49.762Z,118.80
2023-02-17T03:35:49.749Z,123.30
2023-02-17T03:36:49.745Z,126.80
2023-02-17T03:37:49.731Z,122.30
2023-02-17T03:38:49.720Z,120.00
2023-02-17T03:40:10.719Z,117.60
2023-02-17T03:40:49.700Z,113.70
2023-02-17T03:41:49.694Z,126.30
2023-02-17T03:42:49.687Z,122.30
2023-02-17T03:43:49.671Z,122.80
2023-02-17T03:44:49.657Z,122.60
2023-02-17T03:46:10.667Z,121.70
2023-02-17T03:46:49.659Z,124.80
2023-02-17T03:47:49.632Z,127.30
2023-02-17T03:48:49.619Z,123.80
2023-02-17T03:49:49.612Z,135.10
2023-02-17T03:50:49.602Z,131.80
2023-02-17T03:52:10.604Z,133.60
2023-02-17T03:52:49.583Z,139.70
2023-02-17T03:53:49.589Z,133.90
2023-02-17T03:54:49.569Z,130.50
2023-02-17T03:55:49.558Z,137.70
2023-02-17T03:56:49.541Z,145.60
2023-02-17T03:58:10.529Z,143.70
2023-02-17T03:58:49.518Z,157.90
2023-02-17T03:59:49.512Z,152.80
2023-02-17T04:00:49.497Z,150.30
2023-02-17T04:01:49.493Z,170.90
2023-02-17T04:02:49.479Z,175.10
2023-02-17T04:04:10.648Z,165.00
2023-02-17T04:04:49.462Z,167.00
2023-02-17T04:05:49.452Z,166.10
2023-02-17T04:06:49.441Z,169.30
2023-02-17T04:07:49.434Z,176.90
2023-02-17T04:08:49.429Z,173.50
2023-02-17T04:10:10.410Z,168.30
2023-02-17T04:10:49.401Z,171.70
2023-02-17T04:11:49.389Z,182.00
2023-02-17T04:12:49.375Z,168.70
2023-02-17T04:13:49.368Z,174.00
2023-02-17T04:14:49.350Z,193.40
2023-02-17T04:16:10.358Z,180.80
2023-02-17T04:16:49.350Z,184.20
2023-02-17T04:17:49.336Z,190.70
2023-02-17T04:18:49.316Z,187.70
2023-02-17T04:19:49.311Z,186.90
2023-02-17T04:20:49.307Z,194.30
2023-02-17T04:22:10.294Z,183.30
2023-02-17T04:22:49.273Z,170.20
2023-02-17T04:23:49.281Z,200.30
2023-02-17T04:24:49.258Z,197.10
2023-02-17T04:25:49.259Z,194.70
2023-02-17T04:26:49.239Z,198.50
2023-02-17T04:28:10.235Z,194.80
2023-02-17T04:28:49.220Z,208.50
2023-02-17T04:29:49.211Z,195.60
2023-02-17T04:30:49.304Z,198.40
2023-02-17T04:31:49.312Z,205.20
2023-02-17T04:32:49.178Z,196.30
2023-02-17T04:34:10.172Z,203.90
2023-02-17T04:34:49.156Z,209.90
2023-02-17T04:35:49.152Z,208.30
2023-02-17T04:36:49.134Z,187.00
2023-02-17T04:37:49.130Z,203.80
2023-02-17T04:38:49.115Z,173.50
2023-02-17T04:40:10.130Z,197.20
2023-02-17T04:40:49.092Z,199.10
2023-02-17T04:41:49.103Z,178.90
2023-02-17T04:42:49.077Z,178.50
2023-02-17T04:43:49.084Z,203.30
2023-02-17T04:44:49.072Z,195.60
2023-02-17T04:46:10.344Z,186.40
2023-02-17T04:46:49.032Z,171.60
2023-02-17T04:47:49.027Z,179.00
2023-02-17T04:48:49.023Z,172.20
2023-02-17T04:49:49.016Z,190.80
2023-02-17T04:50:48.998Z,179.30
2023-02-17T04:52:09.996Z,187.30
2023-02-17T04:52:48.974Z,170.00
2023-02-17T04:53:48.967Z,195.70
2023-02-17T04:54:48.962Z,204.30
2023-02-17T04:55:48.953Z,191.60
2023-02-17T04:56:48.933Z,187.90
2023-02-17T04:58:09.933Z,192.00
2023-02-17T04:58:48.921Z,198.80
2023-02-17T04:59:48.906Z,169.00
2023-02-17T05:00:48.926Z,197.00
2023-02-17T05:01:48.892Z,209.90
2023-02-17T05:02:48.873Z,184.90
2023-02-17T05:04:09.880Z,190.40
2023-02-17T05:04:48.892Z,189.90
2023-02-17T05:05:48.846Z,209.00
2023-02-17T05:06:48.835Z,172.20
2023-02-17T05:07:48.828Z,214.70
2023-02-17T05:08:48.822Z,196.20
2023-02-17T05:10:09.819Z,185.60
2023-02-17T05:10:48.794Z,216.40
2023-02-17T05:11:48.787Z,201.10
2023-02-17T05:12:48.774Z,186.30
2023-02-17T05:13:48.765Z,192.00
2023-02-17T05:14:48.755Z,178.00
2023-02-17T05:16:09.917Z,195.80
2023-02-17T05:16:48.882Z,172.50
2023-02-17T05:17:48.729Z,184.20
2023-02-17T05:18:48.714Z,163.20
2023-02-17T05:19:48.711Z,162.90
2023-02-17T05:20:48.699Z,172.60
2023-02-17T05:22:09.698Z,166.50
2023-02-17T05:22:48.674Z,153.20
2023-02-17T05:23:48.714Z,147.00
2023-02-17T05:24:48.659Z,155.30
2023-02-17T05:25:48.683Z,147.10
2023-02-17T05:26:48.638Z,151.70
2023-02-17T05:28:09.633Z,142.70
2023-02-17T05:28:48.616Z,146.70
2023-02-17T05:29:48.615Z,157.10
2023-02-17T05:30:48.641Z,160.70
2023-02-17T05:31:48.708Z,160.20
2023-02-17T05:32:48.582Z,155.30
2023-02-17T05:34:09.597Z,147.00
2023-02-17T05:34:48.560Z,152.90
2023-02-17T05:35:48.551Z,174.30
2023-02-17T05:36:48.538Z,179.70
2023-02-17T05:37:48.536Z,159.40
2023-02-17T05:38:48.519Z,141.80
2023-02-17T05:40:09.531Z,162.80
2023-02-17T05:40:48.499Z,143.60
2023-02-17T05:41:48.494Z,153.70
2023-02-17T05:42:48.478Z,166.90
2023-02-17T05:43:48.471Z,168.10
2023-02-17T05:44:48.469Z,172.10
2023-02-17T05:46:09.782Z,165.40
2023-02-17T05:46:48.454Z,179.60
2023-02-17T05:47:48.436Z,144.30
2023-02-17T05:48:48.439Z,189.50
2023-02-17T05:49:48.409Z,171.60
2023-02-17T05:50:48.421Z,170.90
2023-02-17T05:52:09.394Z,185.90
2023-02-17T05:52:48.384Z,183.40
2023-02-17T05:53:48.372Z,192.20
2023-02-17T05:54:48.371Z,174.90
2023-02-17T05:55:48.912Z,217.90
2023-02-17T05:56:48.346Z,190.90
2023-02-17T05:58:09.347Z,178.70
2023-02-17T05:58:48.336Z,201.50
2023-02-17T05:59:48.318Z,183.60
2023-02-17T06:00:48.303Z,190.80
2023-02-17T06:01:48.316Z,183.10
2023-02-17T06:02:48.360Z,203.50
2023-02-17T06:04:09.278Z,184.20
2023-02-17T06:04:48.431Z,185.10
2023-02-17T06:05:48.258Z,175.90
2023-02-17T06:06:48.247Z,207.10
2023-02-17T06:07:48.232Z,173.80
2023-02-17T06:08:48.242Z,201.60
2023-02-17T06:10:09.239Z,179.30
2023-02-17T06:10:48.210Z,188.30
2023-02-17T06:11:48.198Z,183.30
2023-02-17T06:12:48.188Z,179.00
2023-02-17T06:13:48.174Z,181.20
2023-02-17T06:14:48.172Z,185.50
2023-02-17T06:16:09.612Z,159.10
2023-02-17T06:16:48.286Z,157.10
2023-02-17T06:17:48.135Z,162.00
2023-02-17T06:18:48.135Z,148.60
2023-02-17T06:19:48.116Z,159.50
2023-02-17T06:20:48.112Z,134.50
2023-02-17T06:22:09.102Z,146.70
2023-02-17T06:22:48.090Z,129.30
2023-02-17T06:23:48.080Z,134.10
2023-02-17T06:24:48.070Z,125.80
2023-02-17T06:25:48.057Z,126.40
2023-02-17T06:26:48.057Z,133.70
2023-02-17T06:28:09.043Z,135.30
2023-02-17T06:28:48.029Z,123.00
2023-02-17T06:29:48.013Z,130.10
2023-02-17T06:30:48.012Z,144.40
2023-02-17T06:31:48.194Z,145.80
2023-02-17T06:32:47.990Z,126.20
2023-02-17T06:34:08.977Z,127.40
2023-02-17T06:34:47.967Z,120.70
2023-02-17T06:35:47.951Z,124.60
2023-02-17T06:36:47.953Z,130.60
2023-02-17T06:37:47.934Z,135.80
2023-02-17T06:38:47.945Z,113.40
2023-02-17T06:40:08.935Z,116.00
2023-02-17T06:40:47.905Z,95.90
2023-02-17T06:41:47.892Z,106.50
2023-02-17T06:42:47.893Z,110.60
2023-02-17T06:43:47.872Z,98.70
2023-02-17T06:44:47.891Z,105.10
2023-02-17T06:46:09.344Z,109.00
2023-02-17T06:46:47.841Z,102.10
2023-02-17T06:47:47.837Z,97.60
2023-02-17T06:48:47.825Z,89.60
2023-02-17T06:49:47.853Z,97.70
2023-02-17T06:50:47.803Z,89.30
2023-02-17T06:52:08.821Z,85.10
2023-02-17T06:52:47.783Z,82.90
2023-02-17T06:53:47.777Z,84.10
2023-02-17T06:54:47.764Z,77.50
2023-02-17T06:55:47.756Z,93.80
2023-02-17T06:56:47.765Z,82.60
2023-02-17T06:58:08.740Z,81.70
2023-02-17T06:58:47.723Z,85.00
2023-02-17T06:59:47.727Z,78.00
2023-02-17T07:00:47.711Z,88.50
2023-02-17T07:01:47.795Z,91.30
2023-02-17T07:02:47.776Z,77.00
2023-02-17T07:04:08.693Z,84.20
2023-02-17T07:04:47.672Z,72.20
2023-02-17T07:05:47.665Z,74.50
2023-02-17T07:06:47.679Z,75.60
2023-02-17T07:07:47.641Z,75.60
2023-02-17T07:08:47.630Z,76.80
2023-02-17T07:10:08.634Z,78.50
2023-02-17T07:10:47.620Z,83.10
2023-02-17T07:11:47.603Z,79.90
2023-02-17T07:12:47.608Z,75.10
2023-02-17T07:13:47.618Z,75.50
2023-02-17T07:14:47.575Z,76.60
2023-02-17T07:16:08.885Z,69.70
2023-02-17T07:16:47.599Z,70.10
2023-02-17T07:17:47.543Z,66.00
2023-02-17T07:18:47.537Z,66.70
2023-02-17T07:19:47.629Z,64.00
2023-02-17T07:20:47.514Z,71.00
2023-02-17T07:22:08.520Z,85.80
2023-02-17T07:22:47.505Z,76.90
2023-02-17T07:23:47.498Z,67.80
2023-02-17T07:24:47.484Z,93.00
2023-02-17T07:25:47.473Z,67.40
2023-02-17T07:26:47.458Z,119.80
2023-02-17T07:28:08.463Z,87.10
2023-02-17T07:28:47.442Z,81.40
2023-02-17T07:29:47.433Z,87.70
2023-02-17T07:30:47.451Z,79.70
2023-02-17T07:31:47.448Z,53.80
2023-02-17T07:32:47.400Z,78.70
2023-02-17T07:34:08.404Z,69.00
2023-02-17T07:34:47.386Z,79.00
2023-02-17T07:35:47.388Z,65.40
2023-02-17T07:36:47.363Z,48.30
2023-02-17T07:37:47.352Z,49.40
2023-02-17T07:38:47.340Z,43.70
2023-02-17T07:40:08.350Z,57.10
2023-02-17T07:40:47.331Z,45.80
2023-02-17T07:41:47.314Z,39.90
2023-02-17T07:42:47.318Z,44.00
2023-02-17T07:43:47.296Z,44.60
2023-02-17T07:44:47.286Z,42.90
2023-02-17T07:46:08.904Z,44.10
2023-02-17T07:46:47.263Z,45.00
2023-02-17T07:47:47.260Z,45.50
2023-02-17T07:48:47.243Z,43.00
2023-02-17T07:49:47.238Z,46.10
2023-02-17T07:50:47.222Z,44.10
2023-02-17T07:52:08.225Z,52.00
2023-02-17T07:52:47.211Z,40.00
2023-02-17T07:53:47.195Z,41.40
2023-02-17T07:54:47.188Z,41.20
2023-02-17T07:55:47.178Z,41.20
2023-02-17T07:56:47.212Z,39.20
2023-02-17T07:58:08.166Z,41.90
2023-02-17T07:58:47.147Z,40.50
2023-02-17T07:59:47.147Z,39.60
2023-02-17T08:00:47.130Z,35.30
2023-02-17T08:01:47.198Z,33.80
2023-02-17T08:02:47.115Z,34.70
2023-02-17T08:04:08.233Z,37.50
2023-02-17T08:04:47.097Z,37.50
2023-02-17T08:05:48.237Z,35.20
2023-02-17T08:06:47.071Z,33.90
2023-02-17T08:07:47.067Z,33.80
2023-02-17T08:08:47.055Z,34.40
2023-02-17T08:10:08.058Z,36.30
2023-02-17T08:10:47.033Z,34.90
2023-02-17T08:11:48.922Z,34.20
2023-02-17T08:12:47.016Z,36.60
2023-02-17T08:13:47.021Z,35.30
2023-02-17T08:14:47.000Z,33.80
2023-02-17T08:16:08.390Z,35.70
2023-02-17T08:16:47.029Z,35.40
2023-02-17T08:17:49.327Z,34.00
2023-02-17T08:18:46.960Z,37.20
2023-02-17T08:19:48.815Z,35.60
2023-02-17T08:20:46.946Z,33.20
2023-02-17T08:22:07.941Z,33.20
2023-02-17T08:22:46.967Z,32.80
2023-02-17T08:23:46.946Z,36.50
2023-02-17T08:24:46.944Z,35.30
2023-02-17T08:25:46.920Z,34.20
2023-02-17T08:26:46.892Z,33.90
2023-02-17T08:28:07.894Z,33.80
2023-02-17T08:28:46.897Z,32.20
2023-02-17T08:29:46.868Z,32.20
2023-02-17T08:30:46.974Z,31.90
2023-02-17T08:31:46.945Z,32.10
2023-02-17T08:32:46.848Z,34.80
2023-02-17T08:34:07.838Z,36.70
2023-02-17T08:34:46.946Z,40.40
2023-02-17T08:35:46.811Z,37.00
2023-02-17T08:36:46.804Z,35.40
2023-02-17T08:37:46.787Z,40.20
2023-02-17T08:38:46.786Z,36.90
2023-02-17T08:40:07.778Z,37.80
2023-02-17T08:40:46.762Z,36.60
2023-02-17T08:41:46.797Z,38.30
2023-02-17T08:42:46.756Z,40.70
2023-02-17T08:43:46.765Z,41.80
2023-02-17T08:44:46.727Z,42.90
2023-02-17T08:46:08.132Z,45.30
2023-02-17T08:46:46.704Z,43.00
2023-02-17T08:47:46.705Z,42.70
2023-02-17T08:48:46.684Z,45.20
2023-02-17T08:49:46.695Z,40.70
2023-02-17T08:50:46.666Z,41.20
2023-02-17T08:52:07.676Z,44.30
2023-02-17T08:52:46.648Z,41.70
2023-02-17T08:53:46.668Z,40.80
2023-02-17T08:54:46.639Z,38.00
2023-02-17T08:55:49.410Z,41.60
2023-02-17T08:56:46.676Z,43.90
2023-02-17T08:58:07.675Z,40.60
2023-02-17T08:58:46.591Z,38.70
2023-02-17T08:59:46.601Z,41.20
2023-02-17T09:00:46.585Z,42.00
2023-02-17T09:01:46.670Z,43.20
2023-02-17T09:02:46.557Z,41.90
2023-02-17T09:04:07.569Z,44.20
2023-02-17T09:04:46.610Z,43.20
2023-02-17T09:05:46.534Z,44.30
2023-02-17T09:06:46.545Z,38.50
2023-02-17T09:07:46.524Z,41.50
2023-02-17T09:08:46.503Z,42.40
2023-02-17T09:10:07.505Z,43.10
2023-02-17T09:10:46.487Z,42.90
2023-02-17T09:11:46.505Z,37.00
2023-02-17T09:12:46.474Z,39.10
2023-02-17T09:13:46.512Z,39.20
2023-02-17T09:14:46.449Z,42.50
2023-02-17T09:16:07.907Z,42.00
2023-02-17T09:16:46.436Z,43.60
2023-02-17T09:17:46.432Z,42.30
2023-02-17T09:18:46.485Z,45.10
2023-02-17T09:19:46.422Z,45.00
2023-02-17T09:20:46.464Z,45.60
2023-02-17T09:22:07.403Z,42.70
2023-02-17T09:22:46.377Z,45.60
2023-02-17T09:23:46.454Z,44.70
2023-02-17T09:24:46.454Z,45.90
2023-02-17T09:25:46.444Z,44.60
2023-02-17T09:26:46.358Z,43.50
2023-02-17T09:28:07.347Z,45.20
2023-02-17T09:28:46.369Z,42.60
2023-02-17T09:29:46.364Z,42.80
2023-02-17T09:30:46.404Z,46.60
2023-02-17T09:31:46.488Z,42.10
2023-02-17T09:32:46.318Z,88.60
2023-02-17T09:34:07.288Z,158.20
2023-02-17T09:34:46.273Z,88.70
2023-02-17T09:35:46.267Z,50.00
2023-02-17T09:36:46.297Z,48.60
2023-02-17T09:37:46.267Z,48.00
2023-02-17T09:38:46.278Z,52.90
2023-02-17T09:40:07.239Z,53.20
2023-02-17T09:40:46.227Z,53.90
2023-02-17T09:41:46.421Z,55.60
2023-02-17T09:42:46.254Z,53.50
2023-02-17T09:43:46.216Z,47.60
2023-02-17T09:44:46.219Z,48.80
2023-02-17T09:46:07.449Z,48.00
2023-02-17T09:46:59.733Z,49.80
2023-02-17T09:47:46.167Z,52.20
2023-02-17T09:48:46.194Z,53.50
2023-02-17T09:49:46.268Z,57.90
2023-02-17T09:50:46.140Z,55.10
2023-02-17T09:52:07.154Z,57.40
2023-02-17T09:52:46.117Z,57.40
2023-02-17T09:53:46.118Z,59.40
2023-02-17T09:54:46.101Z,54.10
2023-02-17T09:55:46.143Z,59.90
2023-02-17T09:56:46.130Z,55.00
2023-02-17T09:58:07.134Z,61.40
2023-02-17T09:58:46.063Z,53.30
2023-02-17T09:59:46.080Z,56.10
2023-02-17T10:00:46.105Z,55.50
2023-02-17T10:01:46.142Z,49.80
2023-02-17T10:02:46.021Z,53.30
2023-02-17T10:04:07.089Z,52.30
2023-02-17T10:04:46.099Z,57.60
2023-02-17T10:05:45.999Z,56.40
2023-02-17T10:06:46.015Z,61.60
2023-02-17T10:07:46.003Z,58.50
2023-02-17T10:08:45.972Z,60.60
2023-02-17T10:10:07.031Z,65.40
2023-02-17T10:10:45.975Z,108.00
2023-02-17T10:11:46.010Z,58.40
2023-02-17T10:12:45.930Z,58.50
2023-02-17T10:13:45.978Z,73.00
2023-02-17T10:14:45.926Z,71.40
2023-02-17T10:16:07.238Z,66.20
2023-02-17T10:16:45.943Z,74.80
2023-02-17T10:17:45.900Z,73.40
2023-02-17T10:18:45.878Z,63.70
2023-02-17T10:19:45.870Z,60.20
2023-02-17T10:20:45.881Z,61.20
2023-02-17T10:22:06.900Z,62.30
2023-02-17T10:22:45.919Z,64.70
2023-02-17T10:23:45.907Z,72.20
2023-02-17T10:24:45.821Z,73.10
2023-02-17T10:25:45.819Z,81.90
2023-02-17T10:26:45.908Z,63.10
2023-02-17T10:28:06.855Z,78.90
2023-02-17T10:28:45.791Z,68.20
2023-02-17T10:29:45.791Z,72.50
2023-02-17T10:30:45.924Z,70.70
2023-02-17T10:31:46.036Z,59.60
2023-02-17T10:32:45.836Z,53.50
2023-02-17T10:34:06.826Z,54.10
2023-02-17T10:34:45.736Z,52.00
2023-02-17T10:35:45.730Z,56.20
2023-02-17T10:36:45.733Z,59.20
2023-02-17T10:37:45.794Z,52.80
2023-02-17T10:38:45.700Z,54.90
2023-02-17T10:40:06.727Z,51.40
2023-02-17T10:40:45.697Z,50.60
2023-02-17T10:41:45.680Z,49.70
2023-02-17T10:42:45.664Z,50.50
2023-02-17T10:43:45.679Z,52.00
2023-02-17T10:44:45.671Z,51.00
2023-02-17T10:46:06.996Z,48.20
2023-02-17T10:46:45.651Z,48.90
2023-02-17T10:47:45.624Z,45.80
2023-02-17T10:48:45.613Z,40.90
2023-02-17T10:49:45.609Z,41.70
2023-02-17T10:50:45.596Z,42.30
2023-02-17T10:52:06.594Z,42.80
2023-02-17T10:52:45.591Z,39.50
2023-02-17T10:53:45.572Z,41.20
2023-02-17T10:54:45.561Z,40.00
2023-02-17T10:55:45.562Z,41.20
2023-02-17T10:56:45.550Z,40.50
2023-02-17T10:58:06.556Z,42.10
2023-02-17T10:58:45.529Z,37.90
2023-02-17T10:59:45.525Z,40.90
2023-02-17T11:00:45.529Z,41.10
2023-02-17T11:01:45.508Z,42.90
2023-02-17T11:02:45.492Z,44.40
2023-02-17T11:04:06.603Z,34.60
2023-02-17T11:04:45.479Z,39.30
2023-02-17T11:05:45.471Z,39.70
2023-02-17T11:06:45.473Z,43.50
2023-02-17T11:07:45.453Z,45.60
2023-02-17T11:08:45.441Z,44.70
2023-02-17T11:10:06.440Z,32.60
2023-02-17T11:10:45.424Z,34.10
2023-02-17T11:11:45.421Z,34.50
2023-02-17T11:12:45.409Z,34.30
2023-02-17T11:13:45.400Z,31.60
2023-02-17T11:14:45.390Z,36.40
2023-02-17T11:16:06.771Z,33.10
2023-02-17T11:16:45.481Z,31.60
2023-02-17T11:17:45.365Z,33.90
2023-02-17T11:18:45.356Z,36.30
2023-02-17T11:19:45.351Z,35.20
2023-02-17T11:20:45.352Z,35.70
2023-02-17T11:22:06.339Z,33.80
2023-02-17T11:22:45.325Z,34.70
2023-02-17T11:23:45.321Z,33.30
2023-02-17T11:24:45.303Z,30.90
2023-02-17T11:25:45.414Z,30.70
2023-02-17T11:26:45.290Z,36.90
2023-02-17T11:28:06.293Z,32.70
2023-02-17T11:28:45.274Z,34.70
2023-02-17T11:29:45.301Z,31.10
2023-02-17T11:30:45.253Z,30.80
2023-02-17T11:31:45.410Z,29.20
2023-02-17T11:32:45.236Z,31.20
2023-02-17T11:34:06.235Z,34.50
2023-02-17T11:34:45.269Z,32.10
2023-02-17T11:35:45.217Z,32.10
2023-02-17T11:36:45.244Z,30.80
2023-02-17T11:37:45.220Z,32.80
2023-02-17T11:38:45.222Z,32.30
2023-02-17T11:40:06.187Z,31.70
2023-02-17T11:40:45.169Z,28.90
2023-02-17T11:41:45.172Z,29.30
2023-02-17T11:42:45.169Z,33.70
2023-02-17T11:43:45.156Z,31.70
2023-02-17T11:44:45.164Z,30.30
2023-02-17T11:46:06.476Z,31.50
2023-02-17T11:46:45.140Z,28.80
2023-02-17T11:47:45.119Z,25.80
2023-02-17T11:48:45.109Z,27.30
2023-02-17T11:49:45.100Z,28.40
2023-02-17T11:50:45.138Z,27.40
2023-02-17T11:52:06.089Z,26.10
2023-02-17T11:52:45.074Z,28.60
2023-02-17T11:53:45.075Z,24.90
2023-02-17T11:54:45.052Z,26.10
2023-02-17T11:55:45.070Z,25.50
2023-02-17T11:56:45.043Z,25.80
2023-02-17T11:58:06.035Z,25.90
2023-02-17T11:58:45.016Z,23.30
2023-02-17T11:59:45.059Z,21.80
2023-02-17T12:00:45.003Z,21.90
2023-02-17T12:01:45.043Z,23.80
2023-02-17T12:02:45.166Z,24.30
2023-02-17T12:04:05.989Z,23.90
2023-02-17T12:04:44.986Z,24.20
2023-02-17T12:05:44.959Z,27.40
2023-02-17T12:06:44.960Z,24.40
2023-02-17T12:07:44.944Z,24.60
2023-02-17T12:08:47.462Z,23.50
2023-02-17T12:10:05.931Z,23.10
2023-02-17T12:10:44.921Z,23.30
2023-02-17T12:11:44.908Z,20.10
2023-02-17T12:12:44.914Z,21.50
2023-02-17T12:13:44.892Z,23.20
2023-02-17T12:14:44.892Z,21.30
2023-02-17T12:16:06.190Z,21.10
2023-02-17T12:16:44.897Z,22.40
2023-02-17T12:17:44.855Z,20.40
2023-02-17T12:18:44.857Z,19.00
2023-02-17T12:19:44.840Z,19.10
2023-02-17T12:20:44.829Z,20.20
2023-02-17T12:22:05.837Z,20.30
2023-02-17T12:22:44.814Z,19.30
2023-02-17T12:23:44.812Z,18.80
2023-02-17T12:24:44.798Z,19.50
2023-02-17T12:25:44.791Z,17.10
2023-02-17T12:26:44.899Z,17.40
2023-02-17T12:28:05.789Z,17.60
2023-02-17T12:28:44.770Z,16.90
2023-02-17T12:29:44.769Z,18.00
2023-02-17T12:30:44.969Z,16.60
2023-02-17T12:31:44.855Z,15.00
2023-02-17T12:32:44.738Z,13.40
2023-02-17T12:34:05.735Z,14.20
2023-02-17T12:34:44.724Z,14.90
2023-02-17T12:35:44.716Z,13.50
2023-02-17T12:36:44.702Z,14.00
2023-02-17T12:37:44.847Z,13.00
2023-02-17T12:38:44.686Z,13.50
2023-02-17T12:40:05.688Z,11.80
2023-02-17T12:40:44.678Z,13.10
2023-02-17T12:41:44.665Z,11.70
2023-02-17T12:42:44.655Z,11.00
2023-02-17T12:43:44.649Z,12.50
2023-02-17T12:44:44.644Z,12.00
2023-02-17T12:46:05.907Z,11.20